Time;durP1;ratioP1;P1;durP2;ratioP2;P2;SDS_P1;SDS_P2;PMS_P1;PMS_P2;Temp;Humidity;BMP_temperature;BMP_pressure;BME280_temperature;BME280_humidity;BME280_pressure;Samples;Min_cycle;Max_cycle;Signal;HPM_P1;HPM_P2
2022/08/09 00:01:03;;;;;;;1.02;0.75;;;20.00;42.90;;;;;;4989917;28;20041;-71
2022/08/09 00:03:28;;;;;;;1.45;0.80;;;19.90;43.00;;;;;;5014824;28;20107;-71
2022/08/09 00:05:54;;;;;;;3.33;1.00;;;19.90;43.00;;;;;;5021180;28;20060;-70
2022/08/09 00:08:20;;;;;;;4.30;1.00;;;19.90;43.10;;;;;;4991391;28;20093;-70
2022/08/09 00:10:45;;;;;;;2.25;1.08;;;19.80;43.20;;;;;;5000104;28;20064;-72
2022/08/09 00:13:11;;;;;;;1.65;1.00;;;19.80;43.30;;;;;;5000995;28;20062;-72
2022/08/09 00:15:37;;;;;;;2.25;0.80;;;19.70;43.30;;;;;;5010581;28;20014;-70
2022/08/09 00:18:02;;;;;;;2.25;1.20;;;19.70;43.40;;;;;;5020233;28;20025;-71
2022/08/09 00:20:28;;;;;;;3.13;1.02;;;19.70;43.60;;;;;;4995857;28;20367;-71
2022/08/09 00:22:54;;;;;;;1.92;0.88;;;19.60;43.60;;;;;;5020022;28;20039;-70
2022/08/09 00:25:19;;;;;;;1.13;0.75;;;19.60;43.80;;;;;;5027117;28;20069;-74
2022/08/09 00:27:45;;;;;;;1.10;0.80;;;19.50;44.00;;;;;;4996308;28;20124;-72
2022/08/09 00:30:10;;;;;;;1.73;0.98;;;19.50;43.90;;;;;;5030419;28;20030;-71
2022/08/09 00:32:36;;;;;;;1.73;1.00;;;19.50;44.00;;;;;;5011687;28;20033;-71
2022/08/09 00:35:02;;;;;;;2.40;0.98;;;19.40;44.10;;;;;;5022232;28;20029;-71
2022/08/09 00:37:27;;;;;;;0.90;0.90;;;19.40;44.20;;;;;;5021948;28;20029;-71
2022/08/09 00:39:53;;;;;;;2.15;1.00;;;19.40;44.40;;;;;;5019672;28;20489;-70
2022/08/09 00:42:18;;;;;;;1.48;0.93;;;19.30;44.40;;;;;;4979554;28;20080;-71
2022/08/09 00:44:44;;;;;;;1.42;0.90;;;19.30;44.50;;;;;;5001092;28;20064;-70
2022/08/09 00:47:09;;;;;;;1.65;1.00;;;19.30;44.60;;;;;;4999849;28;20042;-70
2022/08/09 00:49:35;;;;;;;1.20;1.10;;;19.20;44.60;;;;;;4996366;28;20034;-71
2022/08/09 00:52:00;;;;;;;1.58;0.93;;;19.20;45.40;;;;;;4981898;28;20033;-71
2022/08/09 00:54:26;;;;;;;3.03;1.00;;;19.10;44.80;;;;;;4965744;28;20112;-71
2022/08/09 00:56:51;;;;;;;4.55;1.00;;;19.10;45.20;;;;;;5001746;28;20041;-71
2022/08/09 00:59:17;;;;;;;3.22;1.23;;;19.10;44.90;;;;;;4971692;28;20076;-72
2022/08/09 01:01:43;;;;;;;1.60;1.08;;;19.00;45.00;;;;;;4984687;28;20053;-71
2022/08/09 01:04:39;;;;;;;1.67;1.00;;;19.00;45.00;;;;;;5002278;28;20041;-71
2022/08/09 01:07:21;;;;;;;3.92;0.95;;;19.00;45.50;;;;;;5000506;28;20045;-70
2022/08/09 01:10:02;;;;;;;2.80;1.10;;;18.90;45.30;;;;;;4958050;28;20459;-71
2022/08/09 01:12:34;;;;;;;1.17;0.95;;;18.90;45.40;;;;;;4994645;28;20084;-70
2022/08/09 01:15:07;;;;;;;2.38;1.20;;;18.80;45.20;;;;;;5006204;28;20053;-70
2022/08/09 01:17:34;;;;;;;2.67;1.13;;;18.80;45.50;;;;;;4976274;28;20060;-71
2022/08/09 01:20:10;;;;;;;2.03;0.98;;;18.70;45.40;;;;;;4998905;28;20061;-70
2022/08/09 01:23:02;;;;;;;1.58;1.05;;;18.70;45.70;;;;;;4998351;28;20092;-70
2022/08/09 01:25:42;;;;;;;2.95;0.93;;;18.60;45.60;;;;;;5019456;28;20041;-72
2022/08/09 01:28:08;;;;;;;1.20;1.00;;;18.60;45.80;;;;;;5012425;28;20701;-70
2022/08/09 01:30:34;;;;;;;4.30;1.15;;;18.50;45.80;;;;;;5001986;28;20110;-72
2022/08/09 01:32:59;;;;;;;1.20;1.10;;;18.40;45.80;;;;;;5016371;28;20067;-71
2022/08/09 01:35:37;;;;;;;2.78;0.90;;;18.40;45.90;;;;;;5021116;28;20044;-70
2022/08/09 01:38:05;;;;;;;1.60;0.80;;;18.40;46.40;;;;;;5006759;28;20033;-72
2022/08/09 01:40:31;;;;;;;3.58;1.02;;;18.30;46.10;;;;;;4983191;28;20048;-72
2022/08/09 01:42:56;;;;;;;2.58;1.05;;;18.30;46.20;;;;;;4981763;28;20617;-71
2022/08/09 01:45:22;;;;;;;3.17;0.98;;;18.30;46.40;;;;;;5011535;28;20737;-72
2022/08/09 01:47:47;;;;;;;2.40;0.90;;;18.30;46.50;;;;;;4988300;28;20040;-73
2022/08/09 01:50:13;;;;;;;3.17;1.13;;;18.20;46.50;;;;;;4993223;28;20041;-71
2022/08/09 01:52:38;;;;;;;2.47;1.00;;;18.20;46.50;;;;;;4999443;28;20123;-72
2022/08/09 01:55:04;;;;;;;3.67;1.08;;;18.10;46.60;;;;;;4999369;28;21262;-71
2022/08/09 01:57:40;;;;;;;1.17;0.90;;;18.10;46.70;;;;;;4941977;28;20042;-72
2022/08/09 02:00:07;;;;;;;1.65;1.00;;;18.10;46.90;;;;;;4991696;28;20056;-72
2022/08/09 02:02:34;;;;;;;2.38;1.10;;;18.00;46.80;;;;;;4983783;28;20033;-71
2022/08/09 02:05:03;;;;;;;2.78;1.00;;;18.00;46.90;;;;;;4970298;28;20037;-71
2022/08/09 02:07:28;;;;;;;1.80;1.10;;;18.00;47.00;;;;;;4980345;28;20884;-71
2022/08/09 02:09:56;;;;;;;1.10;0.90;;;18.00;47.00;;;;;;4961369;28;20037;-71
2022/08/09 02:12:22;;;;;;;1.33;1.15;;;17.90;47.20;;;;;;4957964;28;20120;-70
2022/08/09 02:14:49;;;;;;;1.30;1.00;;;17.90;47.40;;;;;;4967942;28;20113;-71
2022/08/09 02:17:15;;;;;;;4.18;1.00;;;17.90;47.30;;;;;;5009929;28;20033;-70
2022/08/09 02:19:41;;;;;;;1.20;1.10;;;17.80;47.40;;;;;;5013272;28;20030;-71
2022/08/09 02:22:16;;;;;;;1.40;1.10;;;17.80;47.50;;;;;;4990803;28;20111;-72
2022/08/09 02:24:43;;;;;;;1.65;1.00;;;17.80;47.60;;;;;;4998107;28;20048;-70
2022/08/09 02:27:09;;;;;;;1.42;1.13;;;17.70;47.60;;;;;;4993970;28;20042;-70
2022/08/09 02:29:37;;;;;;;1.05;0.95;;;17.70;47.70;;;;;;4994592;28;20090;-71
2022/08/09 02:32:03;;;;;;;1.08;0.98;;;17.70;47.80;;;;;;4969389;28;20034;-72
2022/08/09 02:34:31;;;;;;;2.03;1.20;;;17.70;47.90;;;;;;4983862;28;20038;-71
2022/08/09 02:36:58;;;;;;;1.63;1.00;;;17.60;48.00;;;;;;5000955;28;20533;-71
2022/08/09 02:39:33;;;;;;;1.17;0.93;;;17.60;48.10;;;;;;4994467;28;20033;-71
2022/08/09 02:42:06;;;;;;;1.55;1.20;;;17.50;48.10;;;;;;4964569;28;22921;-70
2022/08/09 02:44:34;;;;;;;0.90;0.90;;;17.50;48.30;;;;;;4953384;28;20036;-70
2022/08/09 02:47:02;;;;;;;4.38;1.10;;;17.50;48.40;;;;;;4955360;28;20048;-70
2022/08/09 02:49:28;;;;;;;1.60;0.90;;;17.40;49.10;;;;;;4995630;28;20176;-71
2022/08/09 02:51:56;;;;;;;1.10;0.98;;;17.40;48.50;;;;;;4964475;28;20116;-71
2022/08/09 02:54:21;;;;;;;4.22;1.30;;;17.40;48.60;;;;;;4958960;28;20037;-72
2022/08/09 02:56:48;;;;;;;2.47;1.08;;;17.30;48.60;;;;;;4982037;28;20072;-70
2022/08/09 02:59:14;;;;;;;1.83;1.00;;;17.30;48.80;;;;;;5004424;28;20059;-70
2022/08/09 03:01:39;;;;;;;1.52;0.85;;;17.30;48.80;;;;;;4983996;28;20570;-71
2022/08/09 03:04:05;;;;;;;1.88;1.35;;;17.20;48.80;;;;;;4983717;28;20328;-70
2022/08/09 03:06:32;;;;;;;3.10;1.15;;;17.20;48.90;;;;;;4999477;28;20822;-70
2022/08/09 03:08:58;;;;;;;2.10;1.20;;;17.20;49.00;;;;;;4978197;28;20038;-70
2022/08/09 03:11:23;;;;;;;3.30;1.05;;;17.10;49.20;;;;;;4986364;28;20245;-71
2022/08/09 03:13:49;;;;;;;2.75;1.20;;;17.10;49.20;;;;;;4981980;28;20072;-73
2022/08/09 03:16:17;;;;;;;2.08;1.38;;;17.10;49.30;;;;;;4996839;28;20430;-70
2022/08/09 03:18:44;;;;;;;2.33;1.30;;;17.00;49.50;;;;;;5011780;28;20057;-70
2022/08/09 03:21:09;;;;;;;1.80;1.20;;;17.00;49.50;;;;;;5005127;28;20372;-70
2022/08/09 03:23:35;;;;;;;3.50;1.20;;;16.90;49.60;;;;;;4986898;28;20066;-71
2022/08/09 03:26:00;;;;;;;1.42;1.00;;;16.90;49.60;;;;;;4981426;28;20042;-72
2022/08/09 03:28:26;;;;;;;1.17;1.00;;;16.90;49.70;;;;;;4973291;28;20034;-71
2022/08/09 03:30:53;;;;;;;1.95;1.13;;;16.90;49.80;;;;;;4977673;28;20107;-71
2022/08/09 03:33:18;;;;;;;2.17;1.10;;;16.80;49.90;;;;;;5002776;28;20144;-71
2022/08/09 03:35:44;;;;;;;7.78;1.63;;;16.80;50.00;;;;;;4991129;28;20598;-71
2022/08/09 03:38:09;;;;;;;4.30;1.67;;;16.80;50.10;;;;;;4990555;28;20046;-72
2022/08/09 03:40:35;;;;;;;1.23;1.13;;;16.70;50.10;;;;;;4966384;28;20107;-71
2022/08/09 03:43:00;;;;;;;1.88;1.00;;;16.70;50.20;;;;;;4986972;28;20516;-71
2022/08/09 03:45:26;;;;;;;3.67;1.17;;;16.70;50.30;;;;;;4993578;28;20511;-71
2022/08/09 03:47:52;;;;;;;1.33;0.95;;;16.60;50.30;;;;;;5003115;28;20372;-70
2022/08/09 03:50:17;;;;;;;1.88;1.05;;;16.70;50.50;;;;;;4989197;28;20034;-72
2022/08/09 03:52:44;;;;;;;5.47;1.38;;;16.60;50.50;;;;;;4982220;28;20514;-71
2022/08/09 03:55:09;;;;;;;4.10;1.00;;;16.60;50.60;;;;;;4975077;28;20630;-70
2022/08/09 03:57:35;;;;;;;3.28;1.10;;;16.50;50.70;;;;;;4986308;28;20034;-71
2022/08/09 04:00:01;;;;;;;1.85;1.20;;;16.50;50.80;;;;;;4949395;28;20100;-72
2022/08/09 04:02:27;;;;;;;1.25;1.00;;;16.50;50.90;;;;;;4953225;28;20026;-71
2022/08/09 04:04:57;;;;;;;2.63;1.23;;;16.40;51.60;;;;;;4977373;28;20060;-73
2022/08/09 04:07:23;;;;;;;2.60;0.98;;;16.40;50.90;;;;;;4995000;28;20095;-72
2022/08/09 04:09:48;;;;;;;1.58;1.13;;;16.40;51.10;;;;;;4952690;28;20038;-71
2022/08/09 04:12:14;;;;;;;2.92;1.38;;;16.30;51.20;;;;;;4975915;28;20038;-71
2022/08/09 04:14:40;;;;;;;1.48;1.10;;;16.30;51.10;;;;;;4993465;28;20037;-70
2022/08/09 04:17:06;;;;;;;1.92;1.17;;;16.30;51.20;;;;;;4977468;28;20603;-71
2022/08/09 04:19:31;;;;;;;1.55;1.15;;;16.30;51.30;;;;;;4979486;28;20033;-71
2022/08/09 04:21:57;;;;;;;2.92;1.10;;;16.20;51.40;;;;;;4964907;28;20034;-72
2022/08/09 04:24:24;;;;;;;3.38;1.20;;;16.20;51.60;;;;;;4976185;28;20093;-70
2022/08/09 04:26:50;;;;;;;1.52;1.20;;;16.20;51.60;;;;;;4954520;28;20141;-71
2022/08/09 04:29:15;;;;;;;3.20;1.40;;;16.20;51.70;;;;;;4990502;28;20134;-71
2022/08/09 04:31:41;;;;;;;2.38;1.27;;;16.10;51.70;;;;;;4982831;28;20519;-71
2022/08/09 04:34:06;;;;;;;2.80;1.02;;;16.10;52.50;;;;;;4977574;28;20068;-71
2022/08/09 04:36:32;;;;;;;1.50;1.10;;;16.10;51.90;;;;;;4950637;28;20705;-72
2022/08/09 04:39:03;;;;;;;2.65;1.13;;;16.10;52.00;;;;;;4999009;28;20030;-71
2022/08/09 04:41:28;;;;;;;1.38;1.27;;;16.10;52.20;;;;;;4986791;28;20091;-71
2022/08/09 04:43:54;;;;;;;2.10;1.38;;;16.00;52.10;;;;;;5017732;28;20045;-71
2022/08/09 04:46:20;;;;;;;2.70;1.23;;;16.00;52.20;;;;;;5011280;28;20073;-71
2022/08/09 04:48:45;;;;;;;2.15;1.33;;;16.00;52.30;;;;;;5009127;28;20045;-70
2022/08/09 04:51:11;;;;;;;2.47;1.25;;;16.00;52.40;;;;;;5015169;28;20500;-71
2022/08/09 04:53:37;;;;;;;1.15;1.02;;;16.00;52.60;;;;;;5012822;28;20132;-71
2022/08/09 04:56:02;;;;;;;2.15;1.42;;;16.00;52.50;;;;;;5016798;28;20039;-70
2022/08/09 04:58:28;;;;;;;1.67;1.33;;;16.00;52.60;;;;;;4995228;28;20137;-72
2022/08/09 05:00:54;;;;;;;2.08;1.17;;;16.00;52.70;;;;;;4989788;28;20030;-69
2022/08/09 05:03:20;;;;;;;1.52;1.38;;;15.90;53.50;;;;;;4995864;28;20033;-70
2022/08/09 05:05:46;;;;;;;1.92;1.35;;;15.90;53.00;;;;;;4982144;28;20115;-70
2022/08/09 05:08:12;;;;;;;3.78;1.20;;;15.90;53.00;;;;;;4985589;28;20473;-69
2022/08/09 05:10:38;;;;;;;3.17;1.38;;;15.90;53.10;;;;;;5015363;28;20041;-70
2022/08/09 05:13:03;;;;;;;2.75;1.23;;;15.90;53.30;;;;;;5002418;28;20112;-70
2022/08/09 05:15:29;;;;;;;3.17;1.15;;;15.90;53.30;;;;;;4996219;28;20088;-71
2022/08/09 05:17:54;;;;;;;4.45;1.27;;;15.90;54.10;;;;;;4988074;28;20529;-70
2022/08/09 05:20:20;;;;;;;1.85;1.52;;;15.90;53.60;;;;;;4967858;28;20057;-70
2022/08/09 05:22:47;;;;;;;4.57;2.05;;;16.00;53.70;;;;;;4967889;28;20123;-72
2022/08/09 05:25:13;;;;;;;1.83;1.60;;;16.00;53.90;;;;;;4976271;28;20164;-70
2022/08/09 05:27:39;;;;;;;4.05;2.00;;;16.00;54.00;;;;;;4978560;28;20105;-70
2022/08/09 05:30:04;;;;;;;3.97;2.03;;;16.10;54.10;;;;;;4984296;28;20525;-70
2022/08/09 05:32:30;;;;;;;2.63;1.90;;;16.10;54.30;;;;;;4997671;28;20713;-71
2022/08/09 05:34:56;;;;;;;3.05;2.05;;;16.10;54.40;;;;;;5000688;28;20034;-70
2022/08/09 05:37:21;;;;;;;9.02;1.85;;;16.20;54.50;;;;;;5001827;28;20125;-71
2022/08/09 05:39:47;;;;;;;7.13;1.50;;;16.20;54.40;;;;;;4993447;28;20593;-70
2022/08/09 05:42:12;;;;;;;3.15;1.60;;;16.20;54.50;;;;;;4996683;28;20045;-72
2022/08/09 05:44:38;;;;;;;4.43;1.67;;;16.30;54.40;;;;;;4981206;28;20061;-71
2022/08/09 05:47:04;;;;;;;3.33;1.50;;;16.40;54.40;;;;;;5008765;28;20505;-71
2022/08/09 05:49:29;;;;;;;8.45;2.25;;;16.40;54.50;;;;;;5030222;28;20041;-71
2022/08/09 05:51:55;;;;;;;8.98;2.22;;;16.40;54.40;;;;;;5017476;28;20167;-70
2022/08/09 05:54:20;;;;;;;7.18;1.60;;;16.50;54.30;;;;;;4999538;28;20031;-70
2022/08/09 05:56:46;;;;;;;11.43;2.60;;;16.60;54.30;;;;;;5016498;28;20493;-70
2022/08/09 05:59:11;;;;;;;5.10;2.05;;;16.60;54.50;;;;;;5020478;28;20036;-70
2022/08/09 06:01:37;;;;;;;4.80;2.10;;;16.70;54.60;;;;;;5011485;28;20043;-71
2022/08/09 06:04:02;;;;;;;3.67;1.95;;;16.80;54.80;;;;;;5019481;28;20041;-72
2022/08/09 06:06:28;;;;;;;4.45;1.92;;;16.80;54.80;;;;;;4997353;28;20038;-70
2022/08/09 06:08:53;;;;;;;3.20;1.75;;;17.00;54.90;;;;;;5009857;28;20826;-71
2022/08/09 06:11:19;;;;;;;3.63;1.83;;;17.00;55.30;;;;;;5014075;28;20026;-71
2022/08/09 06:13:45;;;;;;;4.88;1.80;;;17.10;54.60;;;;;;5009298;28;20059;-72
2022/08/09 06:16:10;;;;;;;8.32;2.50;;;17.20;54.50;;;;;;5001241;28;20060;-71
2022/08/09 06:18:36;;;;;;;3.25;1.60;;;17.30;54.40;;;;;;4996415;28;20021;-72
2022/08/09 06:21:02;;;;;;;6.85;1.80;;;17.50;54.30;;;;;;4984265;28;20033;-72
2022/08/09 06:23:29;;;;;;;2.72;1.60;;;17.60;54.00;;;;;;5010531;28;20148;-72
2022/08/09 06:25:55;;;;;;;3.42;1.63;;;17.60;53.90;;;;;;5017814;28;20048;-72
2022/08/09 06:28:20;;;;;;;3.22;1.30;;;17.80;53.60;;;;;;5017399;28;20033;-71
2022/08/09 06:30:46;;;;;;;4.30;1.35;;;17.90;53.40;;;;;;5012766;28;20043;-71
2022/08/09 06:33:11;;;;;;;5.15;1.90;;;18.10;53.20;;;;;;5004690;28;20148;-72
2022/08/09 06:35:37;;;;;;;4.85;1.58;;;18.20;53.10;;;;;;4991610;28;20030;-71
2022/08/09 06:38:02;;;;;;;4.35;1.40;;;18.30;52.80;;;;;;4980500;28;20168;-72
2022/08/09 06:40:28;;;;;;;3.40;1.40;;;18.50;52.50;;;;;;4980927;28;20037;-72
2022/08/09 06:42:53;;;;;;;4.95;1.83;;;18.70;52.20;;;;;;4992483;28;20608;-71
2022/08/09 06:45:19;;;;;;;4.15;1.45;;;18.80;51.90;;;;;;5008370;28;20666;-72
2022/08/09 06:47:47;;;;;;;9.65;1.98;;;19.00;51.70;;;;;;5012321;28;20044;-72
2022/08/09 06:50:12;;;;;;;2.78;1.40;;;19.10;51.50;;;;;;4991395;28;20040;-72
2022/08/09 06:52:44;;;;;;;2.40;1.50;;;19.20;51.30;;;;;;5007913;28;20112;-71
2022/08/09 06:55:11;;;;;;;5.88;1.70;;;19.40;51.10;;;;;;4983240;28;20523;-71
2022/08/09 06:57:36;;;;;;;3.05;1.50;;;19.60;50.90;;;;;;5014523;28;20033;-71
2022/08/09 07:00:03;;;;;;;3.28;1.40;;;19.70;50.70;;;;;;5002616;28;20037;-71
2022/08/09 07:02:28;;;;;;;3.90;1.50;;;19.90;50.40;;;;;;4981254;28;20375;-71
2022/08/09 07:04:54;;;;;;;7.05;1.40;;;20.00;50.20;;;;;;5007255;28;20079;-71
2022/08/09 07:07:19;;;;;;;6.07;1.30;;;20.20;49.90;;;;;;5002093;28;20065;-72
2022/08/09 07:09:45;;;;;;;25.48;2.58;;;20.30;49.60;;;;;;4996654;28;20421;-72
2022/08/09 07:12:10;;;;;;;2.70;1.48;;;20.50;49.50;;;;;;4987794;28;20553;-71
2022/08/09 07:14:36;;;;;;;4.78;1.30;;;20.70;49.30;;;;;;4954903;28;20034;-73
2022/08/09 07:17:02;;;;;;;3.42;1.35;;;20.90;49.00;;;;;;4981368;28;20490;-73
2022/08/09 07:19:27;;;;;;;1.65;1.17;;;21.00;48.70;;;;;;5009614;28;20443;-73
2022/08/09 07:21:53;;;;;;;5.15;1.42;;;21.30;48.40;;;;;;4987505;28;20033;-70
2022/08/09 07:24:18;;;;;;;2.22;1.10;;;21.40;48.10;;;;;;4982031;28;20511;-72
2022/08/09 07:26:44;;;;;;;2.17;1.55;;;21.60;47.90;;;;;;4995438;28;20143;-72
2022/08/09 07:29:09;;;;;;;3.97;1.45;;;21.80;47.40;;;;;;5001214;28;20033;-71
2022/08/09 07:31:35;;;;;;;3.30;1.48;;;21.90;47.10;;;;;;5010067;28;20776;-72
2022/08/09 07:34:00;;;;;;;4.63;1.88;;;22.10;46.70;;;;;;5017944;28;20068;-71
2022/08/09 07:36:26;;;;;;;5.70;1.80;;;22.20;46.40;;;;;;4992276;28;20701;-72
2022/08/09 07:38:53;;;;;;;2.22;1.17;;;22.40;46.20;;;;;;5001109;28;20041;-71
2022/08/09 07:41:19;;;;;;;1.85;1.10;;;22.60;45.80;;;;;;4998704;28;20092;-72
2022/08/09 07:43:44;;;;;;;4.43;0.90;;;22.80;45.50;;;;;;5018947;28;20423;-72
2022/08/09 07:46:10;;;;;;;2.15;1.10;;;23.00;45.10;;;;;;4989757;28;20577;-71
2022/08/09 07:48:36;;;;;;;1.95;1.10;;;23.20;44.80;;;;;;4996360;28;20121;-71
2022/08/09 07:51:02;;;;;;;4.18;1.40;;;23.40;44.60;;;;;;4981799;28;20108;-71
2022/08/09 07:53:28;;;;;;;2.47;1.40;;;23.60;44.30;;;;;;4983437;28;20125;-72
2022/08/09 07:55:53;;;;;;;1.30;0.98;;;23.80;43.90;;;;;;5007912;28;20120;-71
2022/08/09 07:58:19;;;;;;;1.52;1.02;;;24.00;43.70;;;;;;4980140;28;20726;-72
2022/08/09 08:00:44;;;;;;;3.97;1.17;;;24.20;43.30;;;;;;4972704;28;20580;-73
2022/08/09 08:03:10;;;;;;;2.83;1.10;;;24.40;43.10;;;;;;5001112;28;20064;-72
2022/08/09 08:05:36;;;;;;;1.60;1.20;;;24.60;42.80;;;;;;5003679;28;20084;-72
2022/08/09 08:08:02;;;;;;;4.60;1.10;;;24.80;42.40;;;;;;5003611;28;20056;-72
2022/08/09 08:10:28;;;;;;;1.08;0.98;;;25.00;42.10;;;;;;5021994;28;20057;-72
2022/08/09 08:12:53;;;;;;;3.05;1.08;;;25.20;41.80;;;;;;4989537;28;20041;-72
2022/08/09 08:15:19;;;;;;;1.30;0.95;;;25.40;41.50;;;;;;5008009;28;20045;-72
2022/08/09 08:17:46;;;;;;;2.38;1.10;;;25.60;41.00;;;;;;4996804;28;20057;-72
2022/08/09 08:20:12;;;;;;;3.20;1.00;;;25.80;40.70;;;;;;4989961;28;20041;-72
2022/08/09 08:22:37;;;;;;;0.73;0.70;;;26.00;40.50;;;;;;4973219;28;20677;-72
2022/08/09 08:25:03;;;;;;;1.00;0.70;;;26.20;40.10;;;;;;4993117;28;20030;-73
2022/08/09 08:27:30;;;;;;;3.80;0.95;;;26.40;39.70;;;;;;5000699;28;20466;-72
2022/08/09 08:29:55;;;;;;;1.52;0.85;;;26.60;39.40;;;;;;4999760;28;20040;-72
2022/08/09 08:32:21;;;;;;;1.52;0.98;;;26.80;39.10;;;;;;4998366;28;20492;-71
2022/08/09 08:34:47;;;;;;;0.75;0.75;;;26.90;38.80;;;;;;4993349;28;20034;-72
2022/08/09 08:37:12;;;;;;;2.58;0.90;;;27.10;38.40;;;;;;4986168;28;20154;-72
2022/08/09 08:39:38;;;;;;;1.90;0.80;;;27.30;38.20;;;;;;4975401;28;20058;-72
2022/08/09 08:42:03;;;;;;;1.75;1.00;;;27.50;37.90;;;;;;4998359;28;20049;-72
2022/08/09 08:44:29;;;;;;;4.47;1.00;;;27.70;38.30;;;;;;4973477;28;20042;-72
2022/08/09 08:46:56;;;;;;;1.30;0.90;;;27.90;37.30;;;;;;4961488;28;20057;-74
2022/08/09 08:49:21;;;;;;;1.33;1.02;;;28.10;37.00;;;;;;4952479;28;20522;-73
2022/08/09 08:51:48;;;;;;;1.60;1.10;;;28.30;36.70;;;;;;4987629;28;20045;-75
2022/08/09 08:54:14;;;;;;;1.73;1.00;;;28.50;36.40;;;;;;4924141;28;20031;-72
2022/08/09 08:56:39;;;;;;;1.23;0.98;;;28.70;36.00;;;;;;4948191;28;20092;-70
2022/08/09 08:59:09;;;;;;;2.13;1.25;;;28.90;35.60;;;;;;4946474;28;20507;-70
2022/08/09 09:01:35;;;;;;;2.90;1.20;;;29.00;35.10;;;;;;4970237;28;20439;-72
2022/08/09 09:04:05;;;;;;;1.77;1.10;;;29.10;34.70;;;;;;4968247;28;20042;-72
2022/08/09 09:06:31;;;;;;;2.60;1.05;;;29.30;34.40;;;;;;4979719;28;20045;-71
2022/08/09 09:08:57;;;;;;;3.92;1.35;;;29.40;34.30;;;;;;4981009;28;20627;-73
2022/08/09 09:11:22;;;;;;;1.95;1.23;;;29.60;34.10;;;;;;4961647;28;20042;-72
2022/08/09 09:13:49;;;;;;;3.72;1.10;;;29.70;33.60;;;;;;4981985;28;20567;-73
2022/08/09 09:16:14;;;;;;;4.60;1.30;;;29.90;33.30;;;;;;4985572;28;20038;-72
2022/08/09 09:18:40;;;;;;;1.23;0.90;;;30.10;33.10;;;;;;4968887;28;20033;-73
2022/08/09 09:21:06;;;;;;;4.75;1.77;;;30.20;32.80;;;;;;4968095;28;20030;-73
2022/08/09 09:23:50;;;;;;;2.40;1.10;;;30.40;32.50;;;;;;4987633;28;20052;-73
2022/08/09 09:26:16;;;;;;;2.97;0.98;;;30.50;31.70;;;;;;4982371;28;20129;-73
2022/08/09 09:28:45;;;;;;;1.73;1.00;;;30.60;32.10;;;;;;4968819;28;20047;-73
2022/08/09 09:31:14;;;;;;;3.75;1.10;;;30.70;31.90;;;;;;4968462;28;20071;-72
2022/08/09 09:33:40;;;;;;;2.58;0.90;;;30.90;31.60;;;;;;4980099;28;20030;-73
2022/08/09 09:36:07;;;;;;;5.85;1.45;;;31.00;31.40;;;;;;4996421;28;20056;-72
2022/08/09 09:38:55;;;;;;;2.33;1.00;;;31.10;31.20;;;;;;4988211;28;20081;-72
2022/08/09 09:41:25;;;;;;;2.05;1.27;;;31.20;30.90;;;;;;4981988;28;20095;-72
2022/08/09 09:43:53;;;;;;;2.08;1.05;;;31.40;30.90;;;;;;5017061;28;20462;-72
2022/08/09 09:46:19;;;;;;;2.22;0.90;;;31.60;30.90;;;;;;5017146;28;20604;-72
2022/08/09 09:49:01;;;;;;;4.22;0.85;;;31.80;30.70;;;;;;5018625;28;20049;-73
2022/08/09 09:51:30;;;;;;;4.03;0.95;;;31.90;29.90;;;;;;5019626;28;20029;-72
2022/08/09 09:54:09;;;;;;;1.90;1.13;;;32.00;30.20;;;;;;5003086;28;20120;-73
2022/08/09 09:56:36;;;;;;;4.28;1.10;;;32.10;29.60;;;;;;4994647;28;20033;-73
2022/08/09 09:59:02;;;;;;;2.20;1.33;;;32.20;29.90;;;;;;5006399;28;20041;-74
2022/08/09 10:01:28;;;;;;;3.83;0.98;;;32.30;29.80;;;;;;4993380;28;20117;-73
2022/08/09 10:03:54;;;;;;;1.13;1.00;;;32.50;29.70;;;;;;4997578;28;20529;-73
2022/08/09 10:06:19;;;;;;;2.20;1.00;;;32.60;29.50;;;;;;4989339;28;20128;-73
2022/08/09 10:08:46;;;;;;;1.42;0.98;;;32.70;29.40;;;;;;4996106;28;20661;-72
2022/08/09 10:11:21;;;;;;;2.90;1.02;;;32.90;29.20;;;;;;4991923;28;20037;-72
2022/08/09 10:13:48;;;;;;;4.80;1.23;;;32.90;28.90;;;;;;4974658;28;20052;-74
2022/08/09 10:16:14;;;;;;;2.40;1.17;;;33.00;28.80;;;;;;4992631;28;20048;-72
2022/08/09 10:18:49;;;;;;;3.40;1.27;;;33.00;28.60;;;;;;5011511;28;20033;-73
2022/08/09 10:21:15;;;;;;;4.30;1.08;;;33.10;28.30;;;;;;4997717;28;20041;-73
2022/08/09 10:23:40;;;;;;;1.58;0.90;;;33.10;28.40;;;;;;5005550;28;20034;-72
2022/08/09 10:26:08;;;;;;;3.63;1.05;;;33.10;28.30;;;;;;5001487;28;20040;-73
2022/08/09 10:28:33;;;;;;;3.47;0.93;;;33.30;28.20;;;;;;5016431;28;20037;-72
2022/08/09 10:30:59;;;;;;;1.65;0.90;;;33.40;28.20;;;;;;4998397;28;20102;-74
2022/08/09 10:33:24;;;;;;;3.88;1.08;;;33.50;28.00;;;;;;5014609;28;20045;-73
2022/08/09 10:35:50;;;;;;;2.20;1.17;;;33.60;27.80;;;;;;4987920;28;20428;-74
2022/08/09 10:38:16;;;;;;;6.35;0.80;;;33.70;27.70;;;;;;5009674;28;20044;-72
2022/08/09 10:40:45;;;;;;;2.70;0.90;;;33.80;27.60;;;;;;4994687;28;20039;-74
2022/08/09 10:43:10;;;;;;;1.40;0.95;;;33.80;27.30;;;;;;5005540;28;20073;-74
2022/08/09 10:45:37;;;;;;;1.63;1.00;;;33.80;27.30;;;;;;5000792;28;20057;-73
2022/08/09 10:48:08;;;;;;;1.23;0.82;;;33.90;27.20;;;;;;4996474;28;20056;-72
2022/08/09 10:53:35;;;;;;;2.38;0.80;;;34.10;26.80;;;;;;5009879;28;20107;-73
2022/08/09 10:56:17;;;;;;;4.90;0.80;;;34.20;26.50;;;;;;5026194;28;20038;-73
2022/08/09 10:58:43;;;;;;;2.30;1.15;;;34.20;26.50;;;;;;4977020;28;20060;-72
2022/08/09 11:01:41;;;;;;;0.77;0.70;;;34.20;26.70;;;;;;4994103;28;20446;-73
2022/08/09 11:04:19;;;;;;;1.27;0.80;;;34.40;26.40;;;;;;4959899;28;20040;-72
2022/08/09 11:06:46;;;;;;;1.73;0.95;;;34.50;26.30;;;;;;4986508;28;20049;-72
2022/08/09 11:09:15;;;;;;;1.02;0.70;;;34.60;26.40;;;;;;4979262;28;20058;-72
2022/08/09 11:11:53;;;;;;;2.42;0.90;;;34.70;26.20;;;;;;4971662;28;20050;-72
2022/08/09 11:14:34;;;;;;;1.70;0.93;;;34.80;25.60;;;;;;4998902;28;20036;-72
2022/08/09 11:17:02;;;;;;;1.60;0.57;;;35.00;25.90;;;;;;4997224;28;20050;-72
2022/08/09 11:19:49;;;;;;;5.03;0.90;;;35.10;26.10;;;;;;4969262;28;20042;-72
2022/08/09 11:22:15;;;;;;;1.23;0.90;;;35.30;25.50;;;;;;5009355;28;20037;-72
2022/08/09 11:25:04;;;;;;;4.93;0.90;;;35.40;25.80;;;;;;4998227;28;20678;-71
2022/08/09 11:27:35;;;;;;;1.05;0.70;;;35.50;25.60;;;;;;5011131;28;20087;-72
2022/08/09 11:30:00;;;;;;;;;;;35.70;25.80;;;;;;5001189;28;20514;-72
2022/08/09 11:32:41;;;;;;;3.05;0.88;;;35.90;25.90;;;;;;4987698;28;19947;-72
2022/08/09 11:35:09;;;;;;;1.30;1.02;;;35.90;25.30;;;;;;4989674;28;20042;-72
2022/08/09 11:37:35;;;;;;;1.48;1.05;;;35.90;25.50;;;;;;5009355;28;20033;-72
2022/08/09 11:40:05;;;;;;;5.95;1.67;;;36.00;25.50;;;;;;4958190;28;20780;-72
2022/08/09 11:42:45;;;;;;;1.80;1.00;;;36.00;25.20;;;;;;4956167;28;20518;-72
2022/08/09 11:45:37;;;;;;;1.50;1.08;;;36.10;24.80;;;;;;4986726;28;20042;-72
2022/08/09 11:48:15;;;;;;;4.05;0.90;;;36.10;24.70;;;;;;4976925;28;20561;-71
2022/08/09 11:50:56;;;;;;;1.35;0.90;;;36.20;25.10;;;;;;5022016;28;20032;-73
2022/08/09 11:53:25;;;;;;;1.75;1.02;;;36.20;24.40;;;;;;5008635;28;20070;-72
2022/08/09 11:55:52;;;;;;;1.13;0.90;;;36.20;24.70;;;;;;4981312;28;20104;-72
2022/08/09 11:58:17;;;;;;;2.20;1.05;;;36.20;24.80;;;;;;4977908;28;20145;-73
2022/08/09 12:00:54;;;;;;;3.78;1.10;;;36.30;24.70;;;;;;5000272;28;20054;-72
2022/08/09 12:03:24;;;;;;;3.20;0.88;;;36.50;24.50;;;;;;4988869;28;20502;-72
2022/08/09 12:05:51;;;;;;;4.63;1.00;;;36.50;24.50;;;;;;4997957;28;20142;-73
2022/08/09 12:08:17;;;;;;;1.45;0.90;;;36.60;24.60;;;;;;4988948;28;20113;-73
2022/08/09 12:10:47;;;;;;;3.38;1.10;;;36.60;24.50;;;;;;4954420;28;20117;-73
2022/08/09 12:13:30;;;;;;;1.40;0.82;;;36.70;24.40;;;;;;4998245;28;20033;-72
2022/08/09 12:16:03;;;;;;;1.70;1.00;;;36.90;24.10;;;;;;4988281;28;20107;-72
2022/08/09 12:18:30;;;;;;;0.70;0.70;;;37.00;24.10;;;;;;4988586;28;20044;-72
2022/08/09 12:20:55;;;;;;;1.05;0.90;;;37.00;24.20;;;;;;4966411;28;20121;-73
2022/08/09 12:23:21;;;;;;;1.70;0.95;;;37.10;24.10;;;;;;4987279;28;20124;-72
2022/08/09 12:25:47;;;;;;;1.38;0.80;;;37.10;24.00;;;;;;5000578;28;20045;-71
2022/08/09 12:28:15;;;;;;;1.50;1.00;;;37.00;23.80;;;;;;5020868;28;20108;-71
2022/08/09 12:30:41;;;;;;;2.45;1.00;;;37.00;23.80;;;;;;5013638;28;20018;-72
2022/08/09 12:33:07;;;;;;;1.95;0.90;;;37.10;24.40;;;;;;4999909;28;20034;-72
2022/08/09 12:35:33;;;;;;;1.55;1.00;;;37.20;23.80;;;;;;4993481;28;20059;-72
2022/08/09 12:37:59;;;;;;;1.75;1.00;;;37.20;24.10;;;;;;5018230;28;20036;-72
2022/08/09 12:40:27;;;;;;;2.90;0.75;;;37.20;23.50;;;;;;4984454;28;20597;-72
2022/08/09 12:42:53;;;;;;;1.92;0.65;;;37.20;23.50;;;;;;4980412;28;20070;-72
2022/08/09 12:45:20;;;;;;;3.03;1.27;;;37.30;23.50;;;;;;4994554;28;20042;-72
2022/08/09 12:47:46;;;;;;;1.83;1.00;;;37.40;23.60;;;;;;4973285;28;20220;-72
2022/08/09 12:50:17;;;;;;;1.05;0.85;;;37.50;23.60;;;;;;4985513;28;20282;-74
2022/08/09 12:52:43;;;;;;;1.27;0.75;;;37.60;23.60;;;;;;5028718;28;20059;-72